sensor_id;sensor_type;location;lat;lon;timestamp;P1;durP1;ratioP1;P2;durP2;ratioP2
72194;SDS011;60095;50.180;9.032;2023-03-05T00:02:13;8.25;;;7.40;;
72194;SDS011;60095;50.180;9.032;2023-03-05T00:04:39;13.38;;;8.38;;
72194;SDS011;60095;50.180;9.032;2023-03-05T00:07:07;13.25;;;8.43;;
72194;SDS011;60095;50.180;9.032;2023-03-05T00:09:36;10.88;;;8.05;;
72194;SDS011;60095;50.180;9.032;2023-03-05T00:12:02;6.47;;;5.88;;
72194;SDS011;60095;50.180;9.032;2023-03-05T00:14:29;8.13;;;7.38;;
72194;SDS011;60095;50.180;9.032;2023-03-05T00:16:55;9.40;;;8.50;;
72194;SDS011;60095;50.180;9.032;2023-03-05T00:19:21;9.43;;;7.97;;
72194;SDS011;60095;50.180;9.032;2023-03-05T00:21:48;8.05;;;6.88;;
72194;SDS011;60095;50.180;9.032;2023-03-05T00:24:16;11.07;;;6.88;;
72194;SDS011;60095;50.180;9.032;2023-03-05T00:26:43;15.15;;;9.80;;
72194;SDS011;60095;50.180;9.032;2023-03-05T00:29:10;8.50;;;7.80;;
72194;SDS011;60095;50.180;9.032;2023-03-05T00:31:37;8.55;;;7.65;;
72194;SDS011;60095;50.180;9.032;2023-03-05T00:34:04;14.30;;;10.70;;
72194;SDS011;60095;50.180;9.032;2023-03-05T00:36:31;7.95;;;7.13;;
72194;SDS011;60095;50.180;9.032;2023-03-05T00:38:57;10.80;;;9.60;;
72194;SDS011;60095;50.180;9.032;2023-03-05T00:41:25;18.20;;;9.10;;
72194;SDS011;60095;50.180;9.032;2023-03-05T00:43:51;12.63;;;8.82;;
72194;SDS011;60095;50.180;9.032;2023-03-05T00:46:18;11.93;;;9.18;;
72194;SDS011;60095;50.180;9.032;2023-03-05T00:48:44;11.45;;;7.80;;
72194;SDS011;60095;50.180;9.032;2023-03-05T00:51:10;14.10;;;11.52;;
72194;SDS011;60095;50.180;9.032;2023-03-05T00:53:37;9.20;;;8.30;;
72194;SDS011;60095;50.180;9.032;2023-03-05T00:56:03;14.23;;;10.88;;
72194;SDS011;60095;50.180;9.032;2023-03-05T00:58:31;9.20;;;8.32;;
72194;SDS011;60095;50.180;9.032;2023-03-05T01:00:57;10.73;;;9.68;;
72194;SDS011;60095;50.180;9.032;2023-03-05T01:03:24;14.82;;;10.80;;
72194;SDS011;60095;50.180;9.032;2023-03-05T01:05:50;10.98;;;8.93;;
72194;SDS011;60095;50.180;9.032;2023-03-05T01:08:17;14.45;;;10.60;;
72194;SDS011;60095;50.180;9.032;2023-03-05T01:10:43;10.98;;;9.27;;
72194;SDS011;60095;50.180;9.032;2023-03-05T01:13:10;10.07;;;8.18;;
72194;SDS011;60095;50.180;9.032;2023-03-05T01:15:40;12.82;;;8.48;;
72194;SDS011;60095;50.180;9.032;2023-03-05T01:18:06;10.82;;;8.63;;
72194;SDS011;60095;50.180;9.032;2023-03-05T01:20:32;12.65;;;9.10;;
72194;SDS011;60095;50.180;9.032;2023-03-05T01:22:59;8.40;;;7.03;;
72194;SDS011;60095;50.180;9.032;2023-03-05T01:25:25;9.20;;;7.22;;
72194;SDS011;60095;50.180;9.032;2023-03-05T01:27:52;17.92;;;7.18;;
72194;SDS011;60095;50.180;9.032;2023-03-05T01:30:18;12.88;;;8.18;;
72194;SDS011;60095;50.180;9.032;2023-03-05T01:32:46;10.52;;;5.80;;
72194;SDS011;60095;50.180;9.032;2023-03-05T01:35:14;5.57;;;4.60;;
72194;SDS011;60095;50.180;9.032;2023-03-05T01:37:41;10.95;;;6.50;;
72194;SDS011;60095;50.180;9.032;2023-03-05T01:40:09;4.05;;;3.70;;
72194;SDS011;60095;50.180;9.032;2023-03-05T01:42:35;5.32;;;3.70;;
72194;SDS011;60095;50.180;9.032;2023-03-05T01:45:03;5.10;;;3.65;;
72194;SDS011;60095;50.180;9.032;2023-03-05T01:47:30;10.75;;;3.22;;
72194;SDS011;60095;50.180;9.032;2023-03-05T01:49:58;3.78;;;3.47;;
72194;SDS011;60095;50.180;9.032;2023-03-05T01:52:24;8.77;;;4.28;;
72194;SDS011;60095;50.180;9.032;2023-03-05T01:54:52;2.45;;;2.08;;
72194;SDS011;60095;50.180;9.032;2023-03-05T01:57:19;5.75;;;3.72;;
72194;SDS011;60095;50.180;9.032;2023-03-05T01:59:47;3.58;;;2.03;;
72194;SDS011;60095;50.180;9.032;2023-03-05T02:02:15;4.13;;;2.50;;
72194;SDS011;60095;50.180;9.032;2023-03-05T02:04:42;3.33;;;2.03;;
72194;SDS011;60095;50.180;9.032;2023-03-05T02:07:11;3.47;;;2.25;;
72194;SDS011;60095;50.180;9.032;2023-03-05T02:09:38;7.38;;;3.72;;
72194;SDS011;60095;50.180;9.032;2023-03-05T02:12:04;7.10;;;3.00;;
72194;SDS011;60095;50.180;9.032;2023-03-05T02:14:31;18.63;;;3.10;;
72194;SDS011;60095;50.180;9.032;2023-03-05T02:16:57;3.05;;;2.30;;
72194;SDS011;60095;50.180;9.032;2023-03-05T02:19:24;4.70;;;1.73;;
72194;SDS011;60095;50.180;9.032;2023-03-05T02:21:51;5.35;;;2.55;;
72194;SDS011;60095;50.180;9.032;2023-03-05T02:24:30;5.10;;;2.35;;
72194;SDS011;60095;50.180;9.032;2023-03-05T02:26:56;2.25;;;2.05;;
72194;SDS011;60095;50.180;9.032;2023-03-05T02:29:23;3.45;;;2.70;;
72194;SDS011;60095;50.180;9.032;2023-03-05T02:31:50;17.60;;;2.72;;
72194;SDS011;60095;50.180;9.032;2023-03-05T02:34:16;1.80;;;1.08;;
72194;SDS011;60095;50.180;9.032;2023-03-05T02:36:43;5.05;;;1.33;;
72194;SDS011;60095;50.180;9.032;2023-03-05T02:39:10;3.60;;;1.75;;
72194;SDS011;60095;50.180;9.032;2023-03-05T02:41:37;2.30;;;1.17;;
72194;SDS011;60095;50.180;9.032;2023-03-05T02:44:04;9.85;;;2.25;;
72194;SDS011;60095;50.180;9.032;2023-03-05T02:46:30;4.00;;;2.05;;
72194;SDS011;60095;50.180;9.032;2023-03-05T02:48:56;1.42;;;0.75;;
72194;SDS011;60095;50.180;9.032;2023-03-05T02:51:23;1.67;;;1.40;;
72194;SDS011;60095;50.180;9.032;2023-03-05T02:53:49;1.40;;;0.60;;
72194;SDS011;60095;50.180;9.032;2023-03-05T02:56:17;21.00;;;1.50;;
72194;SDS011;60095;50.180;9.032;2023-03-05T02:58:43;2.85;;;1.50;;
72194;SDS011;60095;50.180;9.032;2023-03-05T03:01:10;12.05;;;1.77;;
72194;SDS011;60095;50.180;9.032;2023-03-05T03:03:36;0.45;;;0.45;;
72194;SDS011;60095;50.180;9.032;2023-03-05T03:06:03;2.28;;;1.13;;
72194;SDS011;60095;50.180;9.032;2023-03-05T03:08:29;2.17;;;0.50;;
72194;SDS011;60095;50.180;9.032;2023-03-05T03:11:02;0.60;;;0.47;;
72194;SDS011;60095;50.180;9.032;2023-03-05T03:13:29;2.58;;;0.95;;
72194;SDS011;60095;50.180;9.032;2023-03-05T03:16:00;2.20;;;1.48;;
72194;SDS011;60095;50.180;9.032;2023-03-05T03:18:26;0.47;;;0.47;;
72194;SDS011;60095;50.180;9.032;2023-03-05T03:20:53;8.23;;;1.08;;
72194;SDS011;60095;50.180;9.032;2023-03-05T03:23:19;2.00;;;1.25;;
72194;SDS011;60095;50.180;9.032;2023-03-05T03:25:45;0.77;;;0.57;;
72194;SDS011;60095;50.180;9.032;2023-03-05T03:28:12;2.00;;;0.98;;
72194;SDS011;60095;50.180;9.032;2023-03-05T03:30:40;1.25;;;0.50;;
72194;SDS011;60095;50.180;9.032;2023-03-05T03:33:06;0.75;;;0.50;;
72194;SDS011;60095;50.180;9.032;2023-03-05T03:35:33;1.20;;;0.75;;
72194;SDS011;60095;50.180;9.032;2023-03-05T03:37:59;7.03;;;1.10;;
72194;SDS011;60095;50.180;9.032;2023-03-05T03:40:25;4.45;;;1.63;;
72194;SDS011;60095;50.180;9.032;2023-03-05T03:42:52;1.58;;;0.55;;
72194;SDS011;60095;50.180;9.032;2023-03-05T03:45:18;1.52;;;1.27;;
72194;SDS011;60095;50.180;9.032;2023-03-05T03:47:47;4.00;;;1.65;;
72194;SDS011;60095;50.180;9.032;2023-03-05T03:50:14;0.50;;;0.50;;
72194;SDS011;60095;50.180;9.032;2023-03-05T03:52:40;3.55;;;0.77;;
72194;SDS011;60095;50.180;9.032;2023-03-05T03:55:07;2.00;;;1.48;;
72194;SDS011;60095;50.180;9.032;2023-03-05T03:57:33;0.77;;;0.40;;
72194;SDS011;60095;50.180;9.032;2023-03-05T04:00:00;1.88;;;1.00;;
72194;SDS011;60095;50.180;9.032;2023-03-05T04:02:26;2.15;;;1.38;;
72194;SDS011;60095;50.180;9.032;2023-03-05T04:04:54;0.60;;;0.60;;
72194;SDS011;60095;50.180;9.032;2023-03-05T04:07:20;1.65;;;0.90;;
72194;SDS011;60095;50.180;9.032;2023-03-05T04:09:47;0.90;;;0.57;;
72194;SDS011;60095;50.180;9.032;2023-03-05T04:12:13;1.30;;;0.93;;
72194;SDS011;60095;50.180;9.032;2023-03-05T04:14:42;4.40;;;1.02;;
72194;SDS011;60095;50.180;9.032;2023-03-05T04:17:08;2.38;;;0.82;;
72194;SDS011;60095;50.180;9.032;2023-03-05T04:19:35;3.13;;;1.52;;
72194;SDS011;60095;50.180;9.032;2023-03-05T04:22:03;0.52;;;0.40;;
72194;SDS011;60095;50.180;9.032;2023-03-05T04:24:29;2.33;;;1.50;;
72194;SDS011;60095;50.180;9.032;2023-03-05T04:26:55;1.40;;;1.30;;
72194;SDS011;60095;50.180;9.032;2023-03-05T04:29:22;2.08;;;1.10;;
72194;SDS011;60095;50.180;9.032;2023-03-05T04:31:48;7.25;;;0.82;;
72194;SDS011;60095;50.180;9.032;2023-03-05T04:34:14;1.17;;;0.80;;
72194;SDS011;60095;50.180;9.032;2023-03-05T04:36:41;0.88;;;0.60;;
72194;SDS011;60095;50.180;9.032;2023-03-05T04:39:08;2.42;;;1.88;;
72194;SDS011;60095;50.180;9.032;2023-03-05T04:41:34;1.90;;;1.00;;
72194;SDS011;60095;50.180;9.032;2023-03-05T04:44:01;1.40;;;1.30;;
72194;SDS011;60095;50.180;9.032;2023-03-05T04:46:27;2.28;;;1.23;;
72194;SDS011;60095;50.180;9.032;2023-03-05T04:48:53;0.45;;;0.20;;
72194;SDS011;60095;50.180;9.032;2023-03-05T04:51:20;1.30;;;0.52;;
72194;SDS011;60095;50.180;9.032;2023-03-05T04:53:46;0.38;;;0.38;;
72194;SDS011;60095;50.180;9.032;2023-03-05T04:56:14;0.40;;;0.30;;
72194;SDS011;60095;50.180;9.032;2023-03-05T04:58:40;1.35;;;0.90;;
72194;SDS011;60095;50.180;9.032;2023-03-05T05:01:06;0.30;;;0.20;;
72194;SDS011;60095;50.180;9.032;2023-03-05T05:03:32;0.73;;;0.45;;
72194;SDS011;60095;50.180;9.032;2023-03-05T05:05:59;0.57;;;0.55;;
72194;SDS011;60095;50.180;9.032;2023-03-05T05:08:26;5.93;;;0.63;;
72194;SDS011;60095;50.180;9.032;2023-03-05T05:10:56;2.83;;;0.47;;
72194;SDS011;60095;50.180;9.032;2023-03-05T05:13:24;0.55;;;0.50;;
72194;SDS011;60095;50.180;9.032;2023-03-05T05:15:50;3.45;;;0.98;;
72194;SDS011;60095;50.180;9.032;2023-03-05T05:18:16;1.23;;;0.68;;
72194;SDS011;60095;50.180;9.032;2023-03-05T05:20:43;0.85;;;0.45;;
72194;SDS011;60095;50.180;9.032;2023-03-05T05:23:09;0.82;;;0.40;;
72194;SDS011;60095;50.180;9.032;2023-03-05T05:25:35;0.65;;;0.55;;
72194;SDS011;60095;50.180;9.032;2023-03-05T05:28:02;3.10;;;1.10;;
72194;SDS011;60095;50.180;9.032;2023-03-05T05:30:30;0.68;;;0.40;;
72194;SDS011;60095;50.180;9.032;2023-03-05T05:32:56;6.93;;;1.08;;
72194;SDS011;60095;50.180;9.032;2023-03-05T05:35:22;1.38;;;0.60;;
72194;SDS011;60095;50.180;9.032;2023-03-05T05:37:49;0.80;;;0.73;;
72194;SDS011;60095;50.180;9.032;2023-03-05T05:40:15;0.43;;;0.43;;
72194;SDS011;60095;50.180;9.032;2023-03-05T05:42:41;5.25;;;0.52;;
72194;SDS011;60095;50.180;9.032;2023-03-05T05:45:08;1.38;;;0.73;;
72194;SDS011;60095;50.180;9.032;2023-03-05T05:47:36;0.82;;;0.40;;
72194;SDS011;60095;50.180;9.032;2023-03-05T05:50:03;0.17;;;0.17;;
72194;SDS011;60095;50.180;9.032;2023-03-05T05:52:29;0.65;;;0.47;;
72194;SDS011;60095;50.180;9.032;2023-03-05T05:54:55;1.25;;;0.57;;
72194;SDS011;60095;50.180;9.032;2023-03-05T05:57:22;1.02;;;0.65;;
72194;SDS011;60095;50.180;9.032;2023-03-05T05:59:48;0.82;;;0.45;;
72194;SDS011;60095;50.180;9.032;2023-03-05T06:02:15;2.42;;;1.05;;
72194;SDS011;60095;50.180;9.032;2023-03-05T06:04:42;0.93;;;0.63;;
72194;SDS011;60095;50.180;9.032;2023-03-05T06:07:09;0.30;;;0.30;;
72194;SDS011;60095;50.180;9.032;2023-03-05T06:09:35;1.85;;;1.08;;
72194;SDS011;60095;50.180;9.032;2023-03-05T06:12:01;1.63;;;0.82;;
72194;SDS011;60095;50.180;9.032;2023-03-05T06:14:28;2.15;;;1.08;;
72194;SDS011;60095;50.180;9.032;2023-03-05T06:16:54;1.23;;;1.02;;
72194;SDS011;60095;50.180;9.032;2023-03-05T06:19:21;1.88;;;1.35;;
72194;SDS011;60095;50.180;9.032;2023-03-05T06:21:48;7.25;;;0.63;;
72194;SDS011;60095;50.180;9.032;2023-03-05T06:24:15;0.25;;;0.25;;
72194;SDS011;60095;50.180;9.032;2023-03-05T06:26:43;0.55;;;0.30;;
72194;SDS011;60095;50.180;9.032;2023-03-05T06:29:10;0.65;;;0.32;;
72194;SDS011;60095;50.180;9.032;2023-03-05T06:31:37;0.93;;;0.65;;
72194;SDS011;60095;50.180;9.032;2023-03-05T06:34:03;0.38;;;0.38;;
72194;SDS011;60095;50.180;9.032;2023-03-05T06:36:30;1.67;;;1.15;;
72194;SDS011;60095;50.180;9.032;2023-03-05T06:38:58;1.35;;;0.85;;
72194;SDS011;60095;50.180;9.032;2023-03-05T06:41:25;3.35;;;1.42;;
72194;SDS011;60095;50.180;9.032;2023-03-05T06:43:52;4.95;;;1.13;;
72194;SDS011;60095;50.180;9.032;2023-03-05T06:46:19;0.82;;;0.70;;
72194;SDS011;60095;50.180;9.032;2023-03-05T06:48:45;1.40;;;0.88;;
72194;SDS011;60095;50.180;9.032;2023-03-05T06:51:12;2.95;;;1.38;;
72194;SDS011;60095;50.180;9.032;2023-03-05T06:53:39;2.92;;;0.70;;
72194;SDS011;60095;50.180;9.032;2023-03-05T06:56:07;2.58;;;0.93;;
72194;SDS011;60095;50.180;9.032;2023-03-05T06:58:33;0.43;;;0.43;;
72194;SDS011;60095;50.180;9.032;2023-03-05T07:01:00;1.60;;;1.15;;
72194;SDS011;60095;50.180;9.032;2023-03-05T07:03:26;8.25;;;1.15;;
72194;SDS011;60095;50.180;9.032;2023-03-05T07:05:54;0.98;;;0.30;;
72194;SDS011;60095;50.180;9.032;2023-03-05T07:08:20;5.00;;;1.35;;
72194;SDS011;60095;50.180;9.032;2023-03-05T07:10:46;1.45;;;0.95;;
72194;SDS011;60095;50.180;9.032;2023-03-05T07:13:14;1.83;;;1.17;;
72194;SDS011;60095;50.180;9.032;2023-03-05T07:15:42;9.50;;;1.40;;
72194;SDS011;60095;50.180;9.032;2023-03-05T07:18:08;2.58;;;2.38;;
72194;SDS011;60095;50.180;9.032;2023-03-05T07:20:35;2.50;;;1.58;;
72194;SDS011;60095;50.180;9.032;2023-03-05T07:23:01;1.35;;;0.75;;
72194;SDS011;60095;50.180;9.032;2023-03-05T07:25:27;1.02;;;0.90;;
72194;SDS011;60095;50.180;9.032;2023-03-05T07:27:54;1.55;;;1.05;;
72194;SDS011;60095;50.180;9.032;2023-03-05T07:30:22;2.15;;;0.73;;
72194;SDS011;60095;50.180;9.032;2023-03-05T07:32:48;0.95;;;0.68;;
72194;SDS011;60095;50.180;9.032;2023-03-05T07:35:15;0.93;;;0.50;;
72194;SDS011;60095;50.180;9.032;2023-03-05T07:37:41;2.22;;;1.20;;
72194;SDS011;60095;50.180;9.032;2023-03-05T07:40:08;0.73;;;0.73;;
72194;SDS011;60095;50.180;9.032;2023-03-05T07:42:35;2.13;;;1.17;;
72194;SDS011;60095;50.180;9.032;2023-03-05T07:45:01;4.43;;;1.42;;
72194;SDS011;60095;50.180;9.032;2023-03-05T07:47:29;1.10;;;0.88;;
72194;SDS011;60095;50.180;9.032;2023-03-05T07:49:55;2.42;;;1.42;;
72194;SDS011;60095;50.180;9.032;2023-03-05T07:52:22;1.02;;;0.75;;
72194;SDS011;60095;50.180;9.032;2023-03-05T07:54:48;2.63;;;0.75;;
72194;SDS011;60095;50.180;9.032;2023-03-05T07:57:14;1.75;;;0.75;;
72194;SDS011;60095;50.180;9.032;2023-03-05T07:59:40;0.52;;;0.32;;
72194;SDS011;60095;50.180;9.032;2023-03-05T08:02:08;1.33;;;0.85;;
72194;SDS011;60095;50.180;9.032;2023-03-05T08:04:36;1.88;;;1.02;;
72194;SDS011;60095;50.180;9.032;2023-03-05T08:07:02;3.15;;;1.27;;
72194;SDS011;60095;50.180;9.032;2023-03-05T08:09:28;1.40;;;1.05;;
72194;SDS011;60095;50.180;9.032;2023-03-05T08:11:55;2.15;;;1.45;;
72194;SDS011;60095;50.180;9.032;2023-03-05T08:14:21;1.98;;;1.77;;
72194;SDS011;60095;50.180;9.032;2023-03-05T08:16:48;0.82;;;0.82;;
72194;SDS011;60095;50.180;9.032;2023-03-05T08:19:16;0.95;;;0.60;;
72194;SDS011;60095;50.180;9.032;2023-03-05T08:21:43;3.78;;;1.70;;
72194;SDS011;60095;50.180;9.032;2023-03-05T08:24:10;4.32;;;2.38;;
72194;SDS011;60095;50.180;9.032;2023-03-05T08:26:37;2.75;;;1.92;;
72194;SDS011;60095;50.180;9.032;2023-03-05T08:29:04;5.85;;;3.78;;
72194;SDS011;60095;50.180;9.032;2023-03-05T08:31:31;9.90;;;3.30;;
72194;SDS011;60095;50.180;9.032;2023-03-05T08:33:58;4.93;;;4.22;;
72194;SDS011;60095;50.180;9.032;2023-03-05T08:36:24;3.58;;;3.22;;
72194;SDS011;60095;50.180;9.032;2023-03-05T08:38:52;8.00;;;4.93;;
72194;SDS011;60095;50.180;9.032;2023-03-05T08:41:19;5.45;;;3.78;;
72194;SDS011;60095;50.180;9.032;2023-03-05T08:43:46;4.22;;;3.55;;
72194;SDS011;60095;50.180;9.032;2023-03-05T08:46:13;6.47;;;4.30;;
72194;SDS011;60095;50.180;9.032;2023-03-05T08:48:40;8.30;;;6.38;;
72194;SDS011;60095;50.180;9.032;2023-03-05T08:51:06;19.10;;;8.70;;
72194;SDS011;60095;50.180;9.032;2023-03-05T08:53:33;8.10;;;5.65;;
72194;SDS011;60095;50.180;9.032;2023-03-05T08:56:01;10.07;;;6.65;;
72194;SDS011;60095;50.180;9.032;2023-03-05T08:58:27;15.18;;;4.95;;
72194;SDS011;60095;50.180;9.032;2023-03-05T09:00:54;10.43;;;6.55;;
72194;SDS011;60095;50.180;9.032;2023-03-05T09:03:21;14.00;;;5.95;;
72194;SDS011;60095;50.180;9.032;2023-03-05T09:05:47;12.45;;;6.45;;
72194;SDS011;60095;50.180;9.032;2023-03-05T09:08:14;12.43;;;7.75;;
72194;SDS011;60095;50.180;9.032;2023-03-05T09:10:40;13.60;;;6.47;;
72194;SDS011;60095;50.180;9.032;2023-03-05T09:13:08;8.48;;;7.70;;
72194;SDS011;60095;50.180;9.032;2023-03-05T09:15:35;6.45;;;5.55;;
72194;SDS011;60095;50.180;9.032;2023-03-05T09:18:01;9.45;;;8.18;;
72194;SDS011;60095;50.180;9.032;2023-03-05T09:20:28;8.45;;;5.85;;
72194;SDS011;60095;50.180;9.032;2023-03-05T09:22:54;9.10;;;6.32;;
72194;SDS011;60095;50.180;9.032;2023-03-05T09:25:20;21.15;;;12.25;;
72194;SDS011;60095;50.180;9.032;2023-03-05T09:27:47;23.65;;;15.43;;
72194;SDS011;60095;50.180;9.032;2023-03-05T09:30:15;4.68;;;4.13;;
72194;SDS011;60095;50.180;9.032;2023-03-05T09:32:41;9.85;;;7.50;;
72194;SDS011;60095;50.180;9.032;2023-03-05T09:35:08;16.08;;;9.73;;
72194;SDS011;60095;50.180;9.032;2023-03-05T09:37:34;15.80;;;5.57;;
72194;SDS011;60095;50.180;9.032;2023-03-05T09:40:01;9.20;;;5.38;;
72194;SDS011;60095;50.180;9.032;2023-03-05T09:42:28;6.18;;;4.20;;
72194;SDS011;60095;50.180;9.032;2023-03-05T09:45:07;4.63;;;4.15;;
72194;SDS011;60095;50.180;9.032;2023-03-05T09:47:44;7.28;;;6.47;;
72194;SDS011;60095;50.180;9.032;2023-03-05T09:50:11;10.30;;;9.30;;
72194;SDS011;60095;50.180;9.032;2023-03-05T09:52:40;15.50;;;7.97;;
72194;SDS011;60095;50.180;9.032;2023-03-05T09:55:09;8.82;;;8.02;;
72194;SDS011;60095;50.180;9.032;2023-03-05T09:57:38;7.50;;;5.95;;
72194;SDS011;60095;50.180;9.032;2023-03-05T10:00:08;12.88;;;8.38;;
72194;SDS011;60095;50.180;9.032;2023-03-05T10:02:46;14.98;;;6.28;;
72194;SDS011;60095;50.180;9.032;2023-03-05T10:05:14;6.00;;;4.35;;
72194;SDS011;60095;50.180;9.032;2023-03-05T10:07:43;8.43;;;7.60;;
72194;SDS011;60095;50.180;9.032;2023-03-05T10:10:11;5.60;;;3.88;;
72194;SDS011;60095;50.180;9.032;2023-03-05T10:12:39;4.25;;;2.70;;
72194;SDS011;60095;50.180;9.032;2023-03-05T10:15:09;5.38;;;3.47;;
72194;SDS011;60095;50.180;9.032;2023-03-05T10:18:02;11.27;;;6.95;;
72194;SDS011;60095;50.180;9.032;2023-03-05T10:20:36;16.35;;;5.68;;
72194;SDS011;60095;50.180;9.032;2023-03-05T10:23:08;4.00;;;3.22;;
72194;SDS011;60095;50.180;9.032;2023-03-05T10:25:42;12.45;;;5.30;;
72194;SDS011;60095;50.180;9.032;2023-03-05T10:28:13;6.43;;;4.95;;
72194;SDS011;60095;50.180;9.032;2023-03-05T10:30:48;6.65;;;6.03;;
72194;SDS011;60095;50.180;9.032;2023-03-05T10:33:21;4.15;;;3.75;;
72194;SDS011;60095;50.180;9.032;2023-03-05T10:35:57;5.35;;;3.67;;
72194;SDS011;60095;50.180;9.032;2023-03-05T10:38:38;5.15;;;4.70;;
72194;SDS011;60095;50.180;9.032;2023-03-05T10:41:10;11.98;;;4.75;;
72194;SDS011;60095;50.180;9.032;2023-03-05T10:43:43;5.18;;;4.68;;
72194;SDS011;60095;50.180;9.032;2023-03-05T10:46:14;7.18;;;6.53;;
72194;SDS011;60095;50.180;9.032;2023-03-05T10:48:43;10.45;;;5.90;;
72194;SDS011;60095;50.180;9.032;2023-03-05T10:51:14;10.52;;;6.88;;
72194;SDS011;60095;50.180;9.032;2023-03-05T10:53:44;6.25;;;4.25;;
72194;SDS011;60095;50.180;9.032;2023-03-05T10:56:12;5.80;;;4.43;;
72194;SDS011;60095;50.180;9.032;2023-03-05T10:58:41;10.05;;;4.43;;
72194;SDS011;60095;50.180;9.032;2023-03-05T11:01:18;4.75;;;3.58;;
72194;SDS011;60095;50.180;9.032;2023-03-05T11:03:49;10.25;;;6.47;;
72194;SDS011;60095;50.180;9.032;2023-03-05T11:06:24;5.85;;;3.08;;
72194;SDS011;60095;50.180;9.032;2023-03-05T11:08:51;4.55;;;3.95;;
72194;SDS011;60095;50.180;9.032;2023-03-05T11:11:18;3.53;;;2.90;;
72194;SDS011;60095;50.180;9.032;2023-03-05T11:13:52;8.90;;;4.47;;
72194;SDS011;60095;50.180;9.032;2023-03-05T11:16:20;5.57;;;2.97;;
72194;SDS011;60095;50.180;9.032;2023-03-05T11:18:47;3.22;;;2.53;;
72194;SDS011;60095;50.180;9.032;2023-03-05T11:21:18;3.15;;;2.47;;
72194;SDS011;60095;50.180;9.032;2023-03-05T11:24:02;3.28;;;2.97;;
72194;SDS011;60095;50.180;9.032;2023-03-05T11:26:29;3.38;;;1.85;;
72194;SDS011;60095;50.180;9.032;2023-03-05T11:28:56;3.10;;;2.35;;
72194;SDS011;60095;50.180;9.032;2023-03-05T11:31:23;7.00;;;3.15;;
72194;SDS011;60095;50.180;9.032;2023-03-05T11:33:56;7.30;;;3.60;;
72194;SDS011;60095;50.180;9.032;2023-03-05T11:36:23;5.20;;;2.50;;
72194;SDS011;60095;50.180;9.032;2023-03-05T11:38:51;3.25;;;2.08;;
72194;SDS011;60095;50.180;9.032;2023-03-05T11:41:18;3.22;;;2.22;;
72194;SDS011;60095;50.180;9.032;2023-03-05T11:43:46;16.92;;;3.15;;
72194;SDS011;60095;50.180;9.032;2023-03-05T11:46:13;3.22;;;2.40;;
72194;SDS011;60095;50.180;9.032;2023-03-05T11:48:40;4.22;;;2.10;;
72194;SDS011;60095;50.180;9.032;2023-03-05T11:51:14;2.72;;;1.83;;
72194;SDS011;60095;50.180;9.032;2023-03-05T11:53:41;3.58;;;2.88;;
72194;SDS011;60095;50.180;9.032;2023-03-05T11:56:12;6.32;;;2.90;;
72194;SDS011;60095;50.180;9.032;2023-03-05T11:58:43;3.28;;;2.20;;
72194;SDS011;60095;50.180;9.032;2023-03-05T12:01:12;5.93;;;2.03;;
72194;SDS011;60095;50.180;9.032;2023-03-05T12:03:40;3.03;;;1.88;;
72194;SDS011;60095;50.180;9.032;2023-03-05T12:06:09;2.03;;;1.63;;
72194;SDS011;60095;50.180;9.032;2023-03-05T12:08:41;1.92;;;1.65;;
72194;SDS011;60095;50.180;9.032;2023-03-05T12:11:11;5.38;;;2.88;;
72194;SDS011;60095;50.180;9.032;2023-03-05T12:13:39;5.25;;;3.25;;
72194;SDS011;60095;50.180;9.032;2023-03-05T12:16:11;4.35;;;2.42;;
72194;SDS011;60095;50.180;9.032;2023-03-05T12:18:42;5.72;;;2.40;;
72194;SDS011;60095;50.180;9.032;2023-03-05T12:21:13;7.40;;;3.08;;
72194;SDS011;60095;50.180;9.032;2023-03-05T12:23:47;7.53;;;3.75;;
72194;SDS011;60095;50.180;9.032;2023-03-05T12:26:13;5.00;;;3.58;;
72194;SDS011;60095;50.180;9.032;2023-03-05T12:28:53;5.38;;;3.40;;
72194;SDS011;60095;50.180;9.032;2023-03-05T12:34:33;7.72;;;4.88;;
72194;SDS011;60095;50.180;9.032;2023-03-05T12:36:59;6.55;;;4.65;;
72194;SDS011;60095;50.180;9.032;2023-03-05T12:47:46;4.65;;;2.80;;
72194;SDS011;60095;50.180;9.032;2023-03-05T12:52:54;3.05;;;1.98;;
72194;SDS011;60095;50.180;9.032;2023-03-05T12:55:21;4.60;;;2.30;;
72194;SDS011;60095;50.180;9.032;2023-03-05T12:57:50;2.65;;;1.77;;
72194;SDS011;60095;50.180;9.032;2023-03-05T13:00:20;5.93;;;3.75;;
72194;SDS011;60095;50.180;9.032;2023-03-05T13:02:51;3.15;;;2.13;;
72194;SDS011;60095;50.180;9.032;2023-03-05T13:05:20;4.53;;;1.67;;
72194;SDS011;60095;50.180;9.032;2023-03-05T13:07:48;4.50;;;2.28;;
72194;SDS011;60095;50.180;9.032;2023-03-05T13:10:22;3.38;;;3.13;;
72194;SDS011;60095;50.180;9.032;2023-03-05T13:12:49;6.43;;;3.17;;
72194;SDS011;60095;50.180;9.032;2023-03-05T13:15:17;5.32;;;4.05;;
72194;SDS011;60095;50.180;9.032;2023-03-05T13:17:50;2.45;;;1.88;;
72194;SDS011;60095;50.180;9.032;2023-03-05T13:20:27;4.25;;;3.40;;
72194;SDS011;60095;50.180;9.032;2023-03-05T13:23:09;2.58;;;2.10;;
72194;SDS011;60095;50.180;9.032;2023-03-05T13:25:38;3.95;;;2.15;;
72194;SDS011;60095;50.180;9.032;2023-03-05T13:28:05;3.83;;;3.13;;
72194;SDS011;60095;50.180;9.032;2023-03-05T13:30:34;3.85;;;2.55;;
72194;SDS011;60095;50.180;9.032;2023-03-05T13:33:03;2.47;;;1.75;;
72194;SDS011;60095;50.180;9.032;2023-03-05T13:35:29;2.55;;;2.33;;
72194;SDS011;60095;50.180;9.032;2023-03-05T13:37:56;6.53;;;2.80;;
72194;SDS011;60095;50.180;9.032;2023-03-05T13:40:23;4.78;;;3.65;;
72194;SDS011;60095;50.180;9.032;2023-03-05T13:42:50;6.63;;;2.88;;
72194;SDS011;60095;50.180;9.032;2023-03-05T13:48:05;2.10;;;1.83;;
72194;SDS011;60095;50.180;9.032;2023-03-05T13:50:33;2.22;;;2.03;;
72194;SDS011;60095;50.180;9.032;2023-03-05T13:53:12;3.08;;;2.78;;
72194;SDS011;60095;50.180;9.032;2023-03-05T13:55:39;2.90;;;2.03;;
72194;SDS011;60095;50.180;9.032;2023-03-05T13:58:38;4.90;;;3.00;;
72194;SDS011;60095;50.180;9.032;2023-03-05T14:01:07;4.60;;;2.90;;
72194;SDS011;60095;50.180;9.032;2023-03-05T14:03:38;6.55;;;3.58;;
72194;SDS011;60095;50.180;9.032;2023-03-05T14:06:06;7.82;;;2.70;;
72194;SDS011;60095;50.180;9.032;2023-03-05T14:08:34;5.45;;;3.90;;
72194;SDS011;60095;50.180;9.032;2023-03-05T14:11:09;3.25;;;2.78;;
72194;SDS011;60095;50.180;9.032;2023-03-05T14:13:39;3.50;;;2.80;;
72194;SDS011;60095;50.180;9.032;2023-03-05T14:16:07;2.92;;;2.65;;
72194;SDS011;60095;50.180;9.032;2023-03-05T14:18:33;4.15;;;3.10;;
72194;SDS011;60095;50.180;9.032;2023-03-05T14:21:03;5.18;;;2.83;;
72194;SDS011;60095;50.180;9.032;2023-03-05T14:23:38;3.78;;;3.47;;
72194;SDS011;60095;50.180;9.032;2023-03-05T14:28:59;4.60;;;3.67;;
72194;SDS011;60095;50.180;9.032;2023-03-05T14:31:27;4.00;;;2.50;;
72194;SDS011;60095;50.180;9.032;2023-03-05T14:33:54;4.47;;;3.22;;
72194;SDS011;60095;50.180;9.032;2023-03-05T14:36:26;3.78;;;2.05;;
72194;SDS011;60095;50.180;9.032;2023-03-05T14:38:54;3.67;;;2.22;;
72194;SDS011;60095;50.180;9.032;2023-03-05T14:41:26;3.00;;;2.10;;
72194;SDS011;60095;50.180;9.032;2023-03-05T14:43:56;1.75;;;1.08;;
72194;SDS011;60095;50.180;9.032;2023-03-05T14:46:22;3.92;;;2.50;;
72194;SDS011;60095;50.180;9.032;2023-03-05T14:48:48;4.22;;;2.47;;
72194;SDS011;60095;50.180;9.032;2023-03-05T14:51:14;4.95;;;2.22;;
72194;SDS011;60095;50.180;9.032;2023-03-05T14:53:45;3.97;;;2.28;;
72194;SDS011;60095;50.180;9.032;2023-03-05T14:56:15;4.38;;;3.05;;
72194;SDS011;60095;50.180;9.032;2023-03-05T14:58:42;3.30;;;2.53;;
72194;SDS011;60095;50.180;9.032;2023-03-05T15:01:09;2.00;;;1.63;;
72194;SDS011;60095;50.180;9.032;2023-03-05T15:03:37;6.72;;;2.22;;
72194;SDS011;60095;50.180;9.032;2023-03-05T15:06:05;2.38;;;1.95;;
72194;SDS011;60095;50.180;9.032;2023-03-05T15:08:32;19.08;;;1.92;;
72194;SDS011;60095;50.180;9.032;2023-03-05T15:10:59;2.13;;;1.92;;